Time;durP1;ratioP1;P1;durP2;ratioP2;P2;SDS_P1;SDS_P2;PMS_P1;PMS_P2;Temp;Humidity;BMP_temperature;BMP_pressure;BME280_temperature;BME280_humidity;BME280_pressure;Samples;Min_cycle;Max_cycle;Signal;HPM_P1;HPM_P2
2022/03/03 00:01:41;;;;;;;18.40;7.60;;;;;;;;;;5040950;28;20023;-74
2022/03/03 00:04:06;;;;;;;20.30;8.60;;;;;;;;;;5042655;28;20291;-74
2022/03/03 00:06:32;;;;;;;18.77;7.43;;;;;;;;;;5043661;28;20126;-74
2022/03/03 00:08:58;;;;;;;20.73;8.07;;;;;;;;;;5035557;28;20442;-74
2022/03/03 00:11:23;;;;;;;19.73;8.77;;;;;;;;;;5040151;28;20025;-74
2022/03/03 00:13:48;;;;;;;17.77;8.50;;;;;;;;;;5035759;28;20402;-74
2022/03/03 00:16:14;;;;;;;19.37;8.10;;;;;;;;;;5039320;28;20049;-74
2022/03/03 00:18:39;;;;;;;24.07;8.50;;;;;;;;;;5042349;28;20025;-74
2022/03/03 00:21:05;;;;;;;22.30;9.13;;;;;;;;;;5044318;28;20025;-74
2022/03/03 00:23:30;;;;;;;23.37;9.30;;;;;;;;;;5043687;28;20079;-74
2022/03/03 00:25:56;;;;;;;24.40;8.20;;;;;;;;;;5042033;28;20094;-73
2022/03/03 00:28:21;;;;;;;19.87;8.67;;;;;;;;;;5042427;28;20059;-74
2022/03/03 00:30:46;;;;;;;21.37;7.67;;;;;;;;;;5043460;28;20029;-74
2022/03/03 00:33:12;;;;;;;22.03;8.37;;;;;;;;;;5042690;28;20029;-74
2022/03/03 00:35:37;;;;;;;18.93;7.83;;;;;;;;;;5044171;28;20150;-74
2022/03/03 00:38:03;;;;;;;18.13;8.17;;;;;;;;;;5041909;28;20263;-74
2022/03/03 00:40:28;;;;;;;24.67;8.17;;;;;;;;;;5042372;28;20028;-74
2022/03/03 00:42:53;;;;;;;21.10;8.33;;;;;;;;;;5041914;28;20036;-74
2022/03/03 00:45:18;;;;;;;23.37;9.07;;;;;;;;;;5042093;28;20089;-74
2022/03/03 00:47:44;;;;;;;20.53;8.40;;;;;;;;;;5043054;28;20336;-74
2022/03/03 00:50:09;;;;;;;24.80;8.30;;;;;;;;;;5042706;28;20025;-74
2022/03/03 00:52:34;;;;;;;20.70;8.57;;;;;;;;;;5042828;28;20197;-74
2022/03/03 00:55:00;;;;;;;21.03;8.13;;;;;;;;;;5042771;28;20299;-74
2022/03/03 00:57:26;;;;;;;18.57;8.17;;;;;;;;;;5046292;28;20469;-74
2022/03/03 00:59:51;;;;;;;18.63;7.97;;;;;;;;;;5040866;28;20302;-74
2022/03/03 01:02:16;;;;;;;20.03;8.53;;;;;;;;;;5039711;28;20036;-74
2022/03/03 01:04:42;;;;;;;24.73;8.30;;;;;;;;;;5041026;28;20037;-74
2022/03/03 01:07:07;;;;;;;20.07;8.60;;;;;;;;;;5039922;28;20020;-74
2022/03/03 01:09:32;;;;;;;18.57;7.77;;;;;;;;;;5043598;28;20079;-74
2022/03/03 01:11:57;;;;;;;20.37;8.37;;;;;;;;;;5040835;28;20036;-72
2022/03/03 01:14:25;;;;;;;20.20;8.27;;;;;;;;;;5041172;28;20433;-73
2022/03/03 01:16:51;;;;;;;20.27;7.97;;;;;;;;;;5041444;28;20020;-73
2022/03/03 01:19:16;;;;;;;19.57;8.60;;;;;;;;;;5040833;28;20286;-73
2022/03/03 01:21:42;;;;;;;18.37;7.90;;;;;;;;;;5040345;28;20033;-73
2022/03/03 01:24:07;;;;;;;22.50;8.10;;;;;;;;;;5040313;28;20028;-73
2022/03/03 01:26:32;;;;;;;17.70;8.00;;;;;;;;;;5039995;28;20055;-73
2022/03/03 01:28:57;;;;;;;17.73;7.60;;;;;;;;;;5034440;28;20086;-73
2022/03/03 01:31:23;;;;;;;19.67;8.03;;;;;;;;;;5040524;28;20036;-73
2022/03/03 01:33:48;;;;;;;21.50;8.10;;;;;;;;;;5040244;28;20029;-73
2022/03/03 01:36:13;;;;;;;22.50;8.17;;;;;;;;;;5040423;28;20032;-73
2022/03/03 01:38:39;;;;;;;21.83;8.00;;;;;;;;;;5037712;28;20029;-73
2022/03/03 01:41:04;;;;;;;18.77;8.37;;;;;;;;;;5040181;28;20036;-73
2022/03/03 01:43:29;;;;;;;20.30;8.13;;;;;;;;;;5033801;28;20115;-73
2022/03/03 01:45:55;;;;;;;21.03;7.73;;;;;;;;;;5040394;28;20040;-73
2022/03/03 01:48:20;;;;;;;21.37;8.00;;;;;;;;;;5035366;28;20478;-71
2022/03/03 01:50:45;;;;;;;21.20;8.10;;;;;;;;;;5033913;28;20056;-72
2022/03/03 01:53:10;;;;;;;19.33;7.87;;;;;;;;;;5036918;28;20060;-72
2022/03/03 01:55:36;;;;;;;20.53;8.10;;;;;;;;;;5042960;28;20241;-72
2022/03/03 01:58:02;;;;;;;17.33;6.70;;;;;;;;;;5043143;28;20025;-72
2022/03/03 02:00:27;;;;;;;18.50;7.90;;;;;;;;;;5047945;28;20440;-72
2022/03/03 02:02:53;;;;;;;24.93;8.43;;;;;;;;;;5042670;28;20308;-72
2022/03/03 02:05:18;;;;;;;21.10;8.20;;;;;;;;;;5005400;22;20354;-66
2022/03/03 02:07:43;;;;;;;19.93;7.73;;;;;;;;;;5002301;28;20022;-67
2022/03/03 02:10:08;;;;;;;20.43;7.57;;;;;;;;;;5002382;28;20021;-66
2022/03/03 02:12:34;;;;;;;21.23;7.77;;;;;;;;;;5002221;28;20093;-66
2022/03/03 02:14:59;;;;;;;22.23;8.33;;;;;;;;;;5001978;28;20029;-66
2022/03/03 02:17:24;;;;;;;20.00;7.73;;;;;;;;;;5002436;28;20230;-67
2022/03/03 02:19:50;;;;;;;18.27;7.27;;;;;;;;;;5003079;28;20057;-67
2022/03/03 02:22:15;;;;;;;20.60;8.03;;;;;;;;;;5001789;28;20036;-67
2022/03/03 02:24:40;;;;;;;36.73;8.87;;;;;;;;;;5001688;28;20113;-67
2022/03/03 02:27:06;;;;;;;19.33;8.17;;;;;;;;;;5002255;28;20033;-67
2022/03/03 02:29:32;;;;;;;23.37;8.63;;;;;;;;;;5015369;28;20478;-67
2022/03/03 02:31:59;;;;;;;17.13;7.60;;;;;;;;;;5001652;28;20108;-67
2022/03/03 02:34:24;;;;;;;18.97;8.07;;;;;;;;;;4993552;28;20405;-67
2022/03/03 02:36:49;;;;;;;18.93;7.70;;;;;;;;;;5002000;28;20272;-66
2022/03/03 02:39:15;;;;;;;21.20;8.63;;;;;;;;;;5002115;28;20022;-67
2022/03/03 02:41:40;;;;;;;18.60;7.77;;;;;;;;;;5002152;28;20054;-66
2022/03/03 02:44:05;;;;;;;25.50;9.30;;;;;;;;;;5001043;28;20044;-67
2022/03/03 02:46:31;;;;;;;19.17;7.73;;;;;;;;;;5001676;28;20393;-67
2022/03/03 02:48:56;;;;;;;20.43;7.80;;;;;;;;;;5001273;28;20030;-67
2022/03/03 02:51:22;;;;;;;19.47;8.10;;;;;;;;;;5000606;28;20034;-67
2022/03/03 02:53:47;;;;;;;23.13;9.10;;;;;;;;;;5000983;28;20213;-67
2022/03/03 02:56:12;;;;;;;21.53;8.03;;;;;;;;;;5000531;28;20371;-67
2022/03/03 02:58:37;;;;;;;20.93;8.67;;;;;;;;;;5001151;28;20033;-67
2022/03/03 03:01:03;;;;;;;22.00;8.60;;;;;;;;;;5000731;28;20022;-67
2022/03/03 03:03:29;;;;;;;19.30;8.10;;;;;;;;;;5000421;28;20061;-69
2022/03/03 03:05:54;;;;;;;21.40;8.27;;;;;;;;;;4998832;28;20096;-67
2022/03/03 03:08:19;;;;;;;19.53;8.47;;;;;;;;;;4998484;28;20073;-67
2022/03/03 03:10:44;;;;;;;21.47;9.60;;;;;;;;;;5000898;28;20037;-66
2022/03/03 03:13:12;;;;;;;18.77;7.90;;;;;;;;;;5000258;28;20036;-66
2022/03/03 03:15:37;;;;;;;21.13;8.50;;;;;;;;;;5000176;28;20263;-67
2022/03/03 03:18:16;;;;;;;21.30;8.60;;;;;;;;;;5000832;28;20414;-67
2022/03/03 03:20:42;;;;;;;19.60;8.23;;;;;;;;;;4998329;28;20045;-67
2022/03/03 03:23:09;;;;;;;20.33;8.33;;;;;;;;;;5000049;28;20452;-67
2022/03/03 03:25:37;;;;;;;23.13;8.63;;;;;;;;;;5000765;28;20799;-66
2022/03/03 03:28:03;;;;;;;22.83;9.57;;;;;;;;;;4999744;28;20272;-67
2022/03/03 03:30:28;;;;;;;23.27;8.83;;;;;;;;;;5000834;28;20542;-67
2022/03/03 03:32:54;;;;;;;25.87;10.03;;;;;;;;;;5000322;28;20101;-67
2022/03/03 03:35:19;;;;;;;23.90;8.80;;;;;;;;;;5000496;28;20522;-67
2022/03/03 03:37:44;;;;;;;22.13;8.80;;;;;;;;;;5000376;28;20510;-66
2022/03/03 03:40:10;;;;;;;26.37;10.00;;;;;;;;;;5000188;28;20018;-67
2022/03/03 03:42:35;;;;;;;26.67;9.20;;;;;;;;;;4999763;28;20227;-66
2022/03/03 03:45:00;;;;;;;26.90;9.20;;;;;;;;;;4999691;28;20490;-66
2022/03/03 03:47:26;;;;;;;21.93;8.57;;;;;;;;;;5000413;28;20093;-66
2022/03/03 03:49:51;;;;;;;25.33;8.97;;;;;;;;;;4999374;28;20032;-66
2022/03/03 03:52:16;;;;;;;24.10;9.77;;;;;;;;;;4999196;28;20022;-67
2022/03/03 03:54:42;;;;;;;19.57;8.77;;;;;;;;;;5002863;28;20057;-67
2022/03/03 03:57:07;;;;;;;28.83;9.43;;;;;;;;;;5000503;28;20033;-69
2022/03/03 03:59:32;;;;;;;24.50;9.23;;;;;;;;;;4999742;28;20326;-69
2022/03/03 04:01:57;;;;;;;21.87;8.57;;;;;;;;;;5000191;28;20029;-69
2022/03/03 04:04:23;;;;;;;21.73;9.60;;;;;;;;;;4999201;28;20073;-69
2022/03/03 04:06:48;;;;;;;21.40;9.30;;;;;;;;;;5000094;28;20022;-69
2022/03/03 04:09:13;;;;;;;25.73;9.87;;;;;;;;;;4999915;28;20536;-69
2022/03/03 04:11:38;;;;;;;23.57;9.67;;;;;;;;;;5000219;28;20054;-69
2022/03/03 04:14:04;;;;;;;27.40;10.60;;;;;;;;;;4999580;28;20028;-69
2022/03/03 04:16:30;;;;;;;24.40;9.90;;;;;;;;;;5000053;28;20092;-69
2022/03/03 04:18:55;;;;;;;22.47;8.87;;;;;;;;;;4999267;28;20057;-69
2022/03/03 04:21:20;;;;;;;27.93;9.63;;;;;;;;;;4999591;28;20562;-69
2022/03/03 04:23:46;;;;;;;23.23;8.83;;;;;;;;;;4999448;28;20497;-69
2022/03/03 04:26:11;;;;;;;24.90;9.30;;;;;;;;;;5000152;28;20103;-69
2022/03/03 04:28:36;;;;;;;23.13;10.17;;;;;;;;;;4999901;28;20425;-69
2022/03/03 04:31:02;;;;;;;28.70;11.17;;;;;;;;;;4999920;28;20264;-69
2022/03/03 04:33:27;;;;;;;24.37;9.67;;;;;;;;;;4994381;28;20490;-69
2022/03/03 04:35:53;;;;;;;25.70;9.60;;;;;;;;;;4999917;28;20105;-69
2022/03/03 04:38:18;;;;;;;24.53;9.87;;;;;;;;;;4999658;28;20060;-71
2022/03/03 04:40:43;;;;;;;25.67;9.90;;;;;;;;;;4999874;28;20026;-69
2022/03/03 04:43:09;;;;;;;22.03;9.97;;;;;;;;;;4997857;28;20457;-69
2022/03/03 04:45:34;;;;;;;27.47;10.37;;;;;;;;;;4998610;28;20092;-69
2022/03/03 04:47:59;;;;;;;23.23;9.50;;;;;;;;;;4995111;28;20030;-69
2022/03/03 04:50:25;;;;;;;31.67;12.30;;;;;;;;;;4999606;28;20091;-69
2022/03/03 04:52:50;;;;;;;27.00;10.43;;;;;;;;;;4999093;28;20030;-69
2022/03/03 04:55:15;;;;;;;25.87;10.70;;;;;;;;;;4999461;28;20599;-69
2022/03/03 04:57:40;;;;;;;25.87;10.60;;;;;;;;;;4999454;28;20620;-69
2022/03/03 05:00:07;;;;;;;28.90;10.87;;;;;;;;;;4997673;28;20034;-69
2022/03/03 05:02:32;;;;;;;28.00;9.60;;;;;;;;;;4997730;28;20287;-69
2022/03/03 05:04:57;;;;;;;25.13;9.60;;;;;;;;;;4998540;28;20304;-69
2022/03/03 05:07:22;;;;;;;31.63;10.43;;;;;;;;;;4998792;28;20566;-70
2022/03/03 05:09:47;;;;;;;26.93;10.27;;;;;;;;;;4998624;28;20037;-69
2022/03/03 05:12:13;;;;;;;28.53;12.23;;;;;;;;;;4997938;28;20048;-69
2022/03/03 05:14:38;;;;;;;31.03;11.57;;;;;;;;;;4998542;28;20034;-69
2022/03/03 05:17:04;;;;;;;26.37;11.13;;;;;;;;;;4998568;28;20390;-69
2022/03/03 05:19:29;;;;;;;32.07;13.13;;;;;;;;;;4998529;28;20155;-69
2022/03/03 05:21:54;;;;;;;32.03;12.43;;;;;;;;;;4998455;28;20030;-69
2022/03/03 05:24:19;;;;;;;29.83;11.07;;;;;;;;;;4998007;28;20304;-69
2022/03/03 05:26:44;;;;;;;26.83;11.07;;;;;;;;;;4998443;28;20052;-69
2022/03/03 05:29:10;;;;;;;31.87;12.03;;;;;;;;;;4998325;28;20045;-70
2022/03/03 05:31:35;;;;;;;27.80;11.20;;;;;;;;;;4997907;28;20041;-69
2022/03/03 05:34:03;;;;;;;34.40;12.53;;;;;;;;;;4997839;28;20022;-69
2022/03/03 05:36:28;;;;;;;34.83;12.60;;;;;;;;;;4998632;28;20022;-71
2022/03/03 05:38:56;;;;;;;28.43;11.53;;;;;;;;;;4997486;28;20375;-69
2022/03/03 05:41:21;;;;;;;33.37;12.30;;;;;;;;;;4997783;28;20490;-72
2022/03/03 05:43:46;;;;;;;25.53;11.37;;;;;;;;;;4997748;28;20307;-69
2022/03/03 05:46:14;;;;;;;35.90;13.13;;;;;;;;;;4998111;28;20517;-69
2022/03/03 05:48:39;;;;;;;34.83;13.03;;;;;;;;;;4998155;28;20183;-69
2022/03/03 05:51:04;;;;;;;36.93;13.60;;;;;;;;;;5001684;28;20265;-69
2022/03/03 05:53:29;;;;;;;28.40;11.17;;;;;;;;;;5002883;28;20091;-69
2022/03/03 05:55:57;;;;;;;32.00;11.30;;;;;;;;;;5001591;28;20080;-69
2022/03/03 05:58:25;;;;;;;32.47;12.63;;;;;;;;;;4997148;28;20620;-69
2022/03/03 06:00:54;;;;;;;34.83;12.63;;;;;;;;;;4998007;28;20437;-69
2022/03/03 06:03:20;;;;;;;30.33;11.77;;;;;;;;;;4996061;28;20354;-69
2022/03/03 06:05:48;;;;;;;34.83;12.77;;;;;;;;;;4995472;28;20886;-69
2022/03/03 06:08:20;;;;;;;33.20;12.23;;;;;;;;;;4996203;28;20285;-69
2022/03/03 06:10:46;;;;;;;29.42;11.40;;;;;;;;;;4994129;28;20304;-69
2022/03/03 06:13:12;;;;;;;32.53;12.03;;;;;;;;;;4996939;28;20029;-69
2022/03/03 06:15:37;;;;;;;30.23;13.33;;;;;;;;;;4997953;28;20587;-69
2022/03/03 06:18:03;;;;;;;43.03;14.07;;;;;;;;;;4998040;28;20026;-70
2022/03/03 06:20:29;;;;;;;35.47;13.87;;;;;;;;;;4997601;28;20033;-69
2022/03/03 06:22:54;;;;;;;32.50;13.93;;;;;;;;;;4997836;28;21363;-69
2022/03/03 06:25:19;;;;;;;33.73;12.27;;;;;;;;;;4996820;28;20418;-70
2022/03/03 06:27:45;;;;;;;33.87;13.23;;;;;;;;;;4996580;28;20096;-70
2022/03/03 06:30:11;;;;;;;36.80;12.73;;;;;;;;;;4995672;28;20025;-70
2022/03/03 06:32:36;;;;;;;38.50;14.00;;;;;;;;;;4997172;28;20276;-70
2022/03/03 06:35:03;;;;;;;33.70;13.43;;;;;;;;;;4996584;28;20117;-70
2022/03/03 06:37:28;;;;;;;38.67;13.43;;;;;;;;;;4997144;28;20537;-70
2022/03/03 06:39:53;;;;;;;37.40;14.40;;;;;;;;;;4997660;28;20257;-70
2022/03/03 06:42:18;;;;;;;40.03;13.80;;;;;;;;;;5000246;28;20030;-70
2022/03/03 06:44:44;;;;;;;39.77;13.43;;;;;;;;;;5001372;28;20030;-70
2022/03/03 06:47:09;;;;;;;35.03;13.37;;;;;;;;;;5001038;28;20025;-70
2022/03/03 06:49:34;;;;;;;34.70;13.73;;;;;;;;;;5001135;28;20088;-70
2022/03/03 06:52:01;;;;;;;39.80;14.53;;;;;;;;;;5001204;28;20064;-70
2022/03/03 06:54:26;;;;;;;34.70;13.73;;;;;;;;;;5002043;28;20394;-70
2022/03/03 06:56:52;;;;;;;41.33;13.07;;;;;;;;;;5001449;28;20036;-70
2022/03/03 06:59:18;;;;;;;32.30;13.30;;;;;;;;;;5000946;28;20063;-70
2022/03/03 07:01:46;;;;;;;35.53;12.93;;;;;;;;;;5000854;28;20025;-70
2022/03/03 07:04:16;;;;;;;40.67;14.10;;;;;;;;;;4991801;28;20281;-70
2022/03/03 07:06:42;;;;;;;41.07;13.67;;;;;;;;;;5000341;28;20156;-70
2022/03/03 07:09:08;;;;;;;46.13;15.83;;;;;;;;;;5001010;28;20322;-70
2022/03/03 07:11:33;;;;;;;37.27;13.50;;;;;;;;;;5000770;28;20041;-70
2022/03/03 07:13:59;;;;;;;39.77;14.27;;;;;;;;;;5001118;28;20265;-70
2022/03/03 07:16:36;;;;;;;37.00;13.03;;;;;;;;;;5001209;28;20028;-70
2022/03/03 07:19:03;;;;;;;39.63;13.47;;;;;;;;;;5000529;28;20038;-70
2022/03/03 07:21:37;;;;;;;37.20;13.03;;;;;;;;;;5000891;28;20517;-70
2022/03/03 07:24:03;;;;;;;34.00;12.40;;;;;;;;;;5000768;28;20069;-70
2022/03/03 07:26:30;;;;;;;32.87;13.10;;;;;;;;;;5000919;28;20033;-70
2022/03/03 07:28:59;;;;;;;42.27;13.67;;;;;;;;;;5000241;28;20034;-70
2022/03/03 07:31:26;;;;;;;36.60;13.60;;;;;;;;;;5000707;28;20022;-70
2022/03/03 07:33:55;;;;;;;37.20;14.47;;;;;;;;;;5000501;28;20034;-70
2022/03/03 07:36:25;;;;;;;36.87;15.47;;;;;;;;;;5000671;28;20017;-70
2022/03/03 07:38:56;;;;;;;39.23;14.20;;;;;;;;;;5000537;28;20367;-70
2022/03/03 07:41:22;;;;;;;36.70;14.00;;;;;;;;;;5000789;28;20025;-70
2022/03/03 07:43:48;;;;;;;31.50;13.17;;;;;;;;;;5000706;28;20040;-70
2022/03/03 07:46:14;;;;;;;33.83;13.87;;;;;;;;;;5000637;28;20388;-70
2022/03/03 07:48:39;;;;;;;37.97;13.20;;;;;;;;;;5000107;28;20038;-70
2022/03/03 07:51:05;;;;;;;37.63;14.07;;;;;;;;;;5000139;28;20575;-70
2022/03/03 07:53:30;;;;;;;39.10;13.93;;;;;;;;;;4999085;28;20208;-70
2022/03/03 07:56:00;;;;;;;30.90;12.80;;;;;;;;;;5000309;28;20032;-70
2022/03/03 07:58:31;;;;;;;41.17;14.90;;;;;;;;;;5000148;28;20029;-71
2022/03/03 08:00:57;;;;;;;31.20;13.00;;;;;;;;;;4999981;28;20025;-70
2022/03/03 08:03:23;;;;;;;26.87;11.90;;;;;;;;;;4993999;28;20113;-71
2022/03/03 08:05:49;;;;;;;34.80;12.30;;;;;;;;;;4989473;28;20398;-70
2022/03/03 08:08:15;;;;;;;29.97;12.03;;;;;;;;;;4999796;28;20509;-70
2022/03/03 08:10:42;;;;;;;29.47;11.57;;;;;;;;;;5000128;28;20462;-71
2022/03/03 08:13:09;;;;;;;28.60;12.27;;;;;;;;;;4998159;28;20240;-70
2022/03/03 08:15:38;;;;;;;25.67;10.13;;;;;;;;;;4999782;28;20028;-70
2022/03/03 08:18:03;;;;;;;26.67;10.50;;;;;;;;;;4999727;28;20022;-70
2022/03/03 08:20:28;;;;;;;27.20;11.33;;;;;;;;;;5000277;28;20726;-70
2022/03/03 08:22:54;;;;;;;25.60;10.90;;;;;;;;;;4999489;28;20281;-71
2022/03/03 08:25:19;;;;;;;23.77;10.40;;;;;;;;;;4999979;28;20033;-70
2022/03/03 08:27:44;;;;;;;27.87;11.27;;;;;;;;;;4999753;28;20042;-71
2022/03/03 08:30:11;;;;;;;23.93;10.47;;;;;;;;;;4999447;28;20068;-71
2022/03/03 08:32:40;;;;;;;27.93;10.13;;;;;;;;;;4998977;28;20157;-71
2022/03/03 08:35:25;;;;;;;27.87;10.40;;;;;;;;;;4999395;28;20257;-71
2022/03/03 08:37:53;;;;;;;24.53;10.00;;;;;;;;;;4989680;28;20022;-71
2022/03/03 08:40:19;;;;;;;23.97;10.37;;;;;;;;;;4999271;28;20051;-71
2022/03/03 08:42:55;;;;;;;27.80;10.43;;;;;;;;;;4999254;28;20032;-71
2022/03/03 08:45:23;;;;;;;24.30;10.43;;;;;;;;;;4994003;28;20487;-71
2022/03/03 08:47:55;;;;;;;31.37;10.70;;;;;;;;;;4999000;28;20026;-71
2022/03/03 08:50:20;;;;;;;;;;;;;;;;;;4999592;28;20497;-71
2022/03/03 08:52:46;;;;;;;22.18;9.84;;;;;;;;;;4998533;28;19914;-71
2022/03/03 08:55:13;;;;;;;22.48;10.43;;;;;;;;;;4998952;28;20021;-72
2022/03/03 08:57:38;;;;;;;24.58;9.65;;;;;;;;;;4997995;28;20033;-72
2022/03/03 09:00:08;;;;;;;21.65;8.80;;;;;;;;;;4998791;28;20265;-72
2022/03/03 09:02:33;;;;;;;20.85;9.07;;;;;;;;;;4992443;28;20378;-72
2022/03/03 09:04:59;;;;;;;19.83;9.55;;;;;;;;;;4997334;28;20527;-72
2022/03/03 09:07:24;;;;;;;19.05;8.48;;;;;;;;;;4998806;28;20034;-71
2022/03/03 09:09:49;;;;;;;20.80;8.63;;;;;;;;;;4998437;28;20354;-71
2022/03/03 09:12:15;;;;;;;23.48;9.25;;;;;;;;;;4998721;28;20140;-71
2022/03/03 09:14:40;;;;;;;22.70;9.98;;;;;;;;;;4997836;28;20013;-70
2022/03/03 09:17:06;;;;;;;19.77;9.07;;;;;;;;;;4998605;28;20414;-70
2022/03/03 09:19:31;;;;;;;22.83;9.57;;;;;;;;;;4997444;28;20080;-70
2022/03/03 09:21:56;;;;;;;24.50;9.90;;;;;;;;;;4998758;28;20422;-70
2022/03/03 09:24:23;;;;;;;21.70;9.20;;;;;;;;;;4998767;28;20186;-70
2022/03/03 09:26:49;;;;;;;24.77;10.07;;;;;;;;;;4998743;28;20053;-70
2022/03/03 09:29:16;;;;;;;26.03;10.93;;;;;;;;;;4998718;28;20595;-70
2022/03/03 09:31:41;;;;;;;24.30;10.63;;;;;;;;;;4998725;28;20018;-72
2022/03/03 09:34:06;;;;;;;23.30;9.70;;;;;;;;;;4998401;28;20037;-72
2022/03/03 09:36:32;;;;;;;26.07;10.03;;;;;;;;;;4998741;28;20041;-72
2022/03/03 09:38:57;;;;;;;32.87;12.47;;;;;;;;;;4998521;28;20033;-72
2022/03/03 09:41:22;;;;;;;23.47;10.57;;;;;;;;;;4998951;28;20291;-72
2022/03/03 09:43:47;;;;;;;28.20;11.53;;;;;;;;;;4998456;28;20198;-72
2022/03/03 09:46:13;;;;;;;26.27;10.53;;;;;;;;;;4998425;28;20041;-72
2022/03/03 09:48:38;;;;;;;23.20;10.10;;;;;;;;;;5006588;28;20032;-74
2022/03/03 09:51:03;;;;;;;26.63;10.57;;;;;;;;;;5005727;28;20215;-71
2022/03/03 09:53:29;;;;;;;22.73;10.17;;;;;;;;;;4997738;28;20476;-71
2022/03/03 09:55:54;;;;;;;20.50;8.17;;;;;;;;;;4998169;28;20109;-71
2022/03/03 09:58:19;;;;;;;27.73;10.07;;;;;;;;;;4998072;28;20060;-71
2022/03/03 10:00:46;;;;;;;24.03;10.37;;;;;;;;;;4997593;28;20045;-71
2022/03/03 10:03:14;;;;;;;22.13;8.63;;;;;;;;;;4998365;28;20826;-71
2022/03/03 10:05:42;;;;;;;25.63;8.97;;;;;;;;;;4998000;28;20041;-71
2022/03/03 10:08:11;;;;;;;25.50;10.97;;;;;;;;;;4997691;28;20132;-71
2022/03/03 10:10:38;;;;;;;21.77;9.13;;;;;;;;;;4993279;28;20131;-71
2022/03/03 10:13:04;;;;;;;21.93;9.30;;;;;;;;;;4997810;28;20379;-71
2022/03/03 10:15:30;;;;;;;21.13;8.93;;;;;;;;;;4996825;28;20072;-71
2022/03/03 10:18:00;;;;;;;22.13;10.07;;;;;;;;;;4999951;28;20018;-71
2022/03/03 10:20:26;;;;;;;26.00;11.00;;;;;;;;;;5001827;28;20030;-71
2022/03/03 10:22:57;;;;;;;27.13;9.77;;;;;;;;;;5001825;28;20120;-71
2022/03/03 10:25:33;;;;;;;26.05;10.82;;;;;;;;;;4989389;28;20044;-71
2022/03/03 10:28:17;;;;;;;24.43;9.57;;;;;;;;;;5001572;28;20338;-71
2022/03/03 10:30:48;;;;;;;23.30;9.37;;;;;;;;;;5001976;28;20057;-71
2022/03/03 10:33:14;;;;;;;20.65;8.75;;;;;;;;;;5001538;28;20350;-71
2022/03/03 10:35:39;;;;;;;24.87;9.33;;;;;;;;;;5001771;28;20266;-71
2022/03/03 10:38:05;;;;;;;26.13;10.43;;;;;;;;;;5001017;28;20045;-71
2022/03/03 10:40:31;;;;;;;27.10;10.10;;;;;;;;;;5001786;28;20026;-71
2022/03/03 10:42:56;;;;;;;22.10;9.83;;;;;;;;;;5001924;28;20654;-71
2022/03/03 10:45:21;;;;;;;28.37;10.77;;;;;;;;;;5006604;28;20068;-71
2022/03/03 10:47:58;;;;;;;25.10;9.23;;;;;;;;;;5000339;28;20083;-71
2022/03/03 10:50:23;;;;;;;21.80;9.50;;;;;;;;;;5000868;28;20263;-72
2022/03/03 10:52:48;;;;;;;21.07;9.07;;;;;;;;;;5001079;28;20454;-70
2022/03/03 10:55:15;;;;;;;25.50;9.33;;;;;;;;;;5001316;28;20029;-70
2022/03/03 10:57:49;;;;;;;24.70;9.77;;;;;;;;;;5000902;28;20040;-70
2022/03/03 11:00:18;;;;;;;26.27;10.07;;;;;;;;;;5000609;28;20050;-70
2022/03/03 11:02:45;;;;;;;23.33;8.97;;;;;;;;;;5000972;28;20089;-70
2022/03/03 11:05:11;;;;;;;28.03;11.80;;;;;;;;;;5000503;28;20088;-70
2022/03/03 11:07:39;;;;;;;22.00;9.30;;;;;;;;;;5001366;28;20086;-70
2022/03/03 11:10:05;;;;;;;23.50;10.47;;;;;;;;;;5001290;28;20590;-70
2022/03/03 11:12:30;;;;;;;24.10;9.33;;;;;;;;;;5000538;28;20080;-70
2022/03/03 11:14:57;;;;;;;24.70;8.97;;;;;;;;;;5000873;28;20514;-70
2022/03/03 11:17:22;;;;;;;21.37;8.63;;;;;;;;;;5001173;28;20017;-70
2022/03/03 11:19:50;;;;;;;17.37;7.57;;;;;;;;;;5000620;28;20491;-70
2022/03/03 11:22:16;;;;;;;20.87;9.20;;;;;;;;;;5000974;28;20412;-70
2022/03/03 11:24:42;;;;;;;21.67;9.73;;;;;;;;;;5010754;28;20128;-70
2022/03/03 11:27:08;;;;;;;23.20;9.07;;;;;;;;;;5001087;28;20079;-70
2022/03/03 11:29:37;;;;;;;27.23;8.70;;;;;;;;;;5000656;28;20045;-70
2022/03/03 11:32:14;;;;;;;23.73;8.43;;;;;;;;;;5000375;28;20504;-70
2022/03/03 11:34:44;;;;;;;21.90;9.80;;;;;;;;;;5000483;28;20037;-70
2022/03/03 11:37:12;;;;;;;19.10;8.37;;;;;;;;;;5000533;28;20097;-70
2022/03/03 11:39:37;;;;;;;18.73;8.60;;;;;;;;;;5000447;28;20026;-70
2022/03/03 11:42:20;;;;;;;22.97;10.73;;;;;;;;;;5000229;28;20041;-70
2022/03/03 11:44:45;;;;;;;21.87;8.87;;;;;;;;;;5000480;28;20030;-70
2022/03/03 11:47:20;;;;;;;19.43;7.50;;;;;;;;;;5000448;28;20524;-70
2022/03/03 11:49:58;;;;;;;19.67;8.47;;;;;;;;;;5000303;28;20329;-70
2022/03/03 11:52:23;;;;;;;18.07;7.87;;;;;;;;;;4999833;28;20087;-70
2022/03/03 11:54:52;;;;;;;16.47;7.03;;;;;;;;;;5000459;28;20626;-70
2022/03/03 11:57:23;;;;;;;20.90;8.10;;;;;;;;;;5000212;28;20263;-70
2022/03/03 11:59:49;;;;;;;19.47;7.23;;;;;;;;;;4999881;28;20054;-70
2022/03/03 12:02:18;;;;;;;19.87;8.57;;;;;;;;;;4999783;28;20065;-70
2022/03/03 12:04:44;;;;;;;22.53;9.23;;;;;;;;;;4999706;28;20049;-69
2022/03/03 12:07:41;;;;;;;17.73;7.67;;;;;;;;;;4999513;28;20075;-70
2022/03/03 12:10:18;;;;;;;17.43;7.13;;;;;;;;;;4938771;28;20285;-71
2022/03/03 12:12:44;;;;;;;19.33;8.40;;;;;;;;;;4938337;29;20046;-70
2022/03/03 12:15:09;;;;;;;16.43;7.93;;;;;;;;;;4939450;28;20023;-71
2022/03/03 12:18:08;;;;;;;18.37;7.53;;;;;;;;;;4938598;29;20038;-71
2022/03/03 12:20:34;;;;;;;15.07;7.03;;;;;;;;;;4881653;29;20044;-71
2022/03/03 12:23:02;;;;;;;13.33;5.93;;;;;;;;;;4883738;29;20039;-76
2022/03/03 12:25:46;;;;;;;16.43;8.17;;;;;;;;;;4881386;29;20048;-72
2022/03/03 12:28:15;;;;;;;16.13;6.50;;;;;;;;;;4881380;29;20599;-72
2022/03/03 12:30:44;;;;;;;18.73;6.90;;;;;;;;;;4881574;29;20032;-72
2022/03/03 12:33:18;;;;;;;20.30;8.13;;;;;;;;;;4880657;29;20045;-72
2022/03/03 12:35:45;;;;;;;13.43;6.23;;;;;;;;;;4881397;29;20088;-72
2022/03/03 12:38:10;;;;;;;19.73;7.77;;;;;;;;;;4881341;29;20059;-72
2022/03/03 12:40:36;;;;;;;18.40;7.93;;;;;;;;;;4880812;29;20036;-72
2022/03/03 12:43:02;;;;;;;20.53;7.40;;;;;;;;;;4881012;29;20116;-72
2022/03/03 12:45:29;;;;;;;16.03;6.53;;;;;;;;;;4902599;29;20043;-72
2022/03/03 12:47:54;;;;;;;18.03;7.27;;;;;;;;;;4937672;28;20106;-72
2022/03/03 12:50:25;;;;;;;22.27;6.57;;;;;;;;;;4937920;29;20633;-71
2022/03/03 12:52:56;;;;;;;17.33;7.80;;;;;;;;;;4937884;28;20089;-71
2022/03/03 12:55:33;;;;;;;15.43;6.70;;;;;;;;;;4947066;28;20041;-70
2022/03/03 12:57:59;;;;;;;17.93;6.77;;;;;;;;;;4999464;28;20599;-70
2022/03/03 13:00:24;;;;;;;16.37;6.03;;;;;;;;;;4999035;28;20022;-71
2022/03/03 13:02:50;;;;;;;16.20;6.43;;;;;;;;;;4999368;28;20050;-70
2022/03/03 13:05:35;;;;;;;18.03;7.53;;;;;;;;;;4999278;28;20054;-71
2022/03/03 13:08:00;;;;;;;16.27;7.07;;;;;;;;;;4998853;28;20414;-71
2022/03/03 13:10:31;;;;;;;17.17;7.67;;;;;;;;;;4999146;28;20243;-71
2022/03/03 13:12:57;;;;;;;13.67;6.47;;;;;;;;;;4998418;28;20152;-71
2022/03/03 13:15:28;;;;;;;14.17;6.50;;;;;;;;;;4998882;28;20038;-71
2022/03/03 13:18:01;;;;;;;15.90;6.90;;;;;;;;;;4998636;28;20026;-71
2022/03/03 13:20:31;;;;;;;17.15;6.97;;;;;;;;;;4999330;28;20237;-71
2022/03/03 13:22:56;;;;;;;17.40;7.13;;;;;;;;;;4998430;28;20026;-71
2022/03/03 13:25:21;;;;;;;16.20;5.45;;;;;;;;;;4998997;28;20677;-71
2022/03/03 13:27:47;;;;;;;17.13;6.95;;;;;;;;;;4998785;28;20636;-71
2022/03/03 13:30:13;;;;;;;17.33;7.53;;;;;;;;;;4998585;28;20144;-71
2022/03/03 13:32:49;;;;;;;14.60;6.53;;;;;;;;;;4999099;28;20032;-71
2022/03/03 13:35:16;;;;;;;17.75;6.93;;;;;;;;;;4999328;28;20022;-73
2022/03/03 13:37:41;;;;;;;15.52;6.88;;;;;;;;;;4998141;28;20474;-73
2022/03/03 13:40:12;;;;;;;14.05;6.55;;;;;;;;;;4999030;28;20064;-73
2022/03/03 13:42:40;;;;;;;17.25;7.25;;;;;;;;;;4998594;28;20200;-73
2022/03/03 13:45:06;;;;;;;15.70;6.73;;;;;;;;;;4998609;28;20255;-73
2022/03/03 13:47:39;;;;;;;17.23;7.20;;;;;;;;;;4998247;28;20025;-73
2022/03/03 13:50:06;;;;;;;17.37;6.60;;;;;;;;;;4996871;28;20025;-73
2022/03/03 13:52:33;;;;;;;15.80;6.63;;;;;;;;;;4997665;28;20494;-72
2022/03/03 13:55:04;;;;;;;18.83;6.53;;;;;;;;;;4998580;28;20022;-72
2022/03/03 13:57:30;;;;;;;17.52;7.32;;;;;;;;;;4986247;28;20474;-72
2022/03/03 13:59:57;;;;;;;14.00;5.50;;;;;;;;;;4998022;28;20092;-73
2022/03/03 14:02:22;;;;;;;15.57;6.53;;;;;;;;;;4998612;28;20025;-73
2022/03/03 14:04:58;;;;;;;16.03;5.87;;;;;;;;;;4997966;28;20502;-74
2022/03/03 14:07:30;;;;;;;16.77;7.10;;;;;;;;;;4998528;28;20038;-74
2022/03/03 14:09:58;;;;;;;18.40;7.10;;;;;;;;;;4997959;28;20248;-74
2022/03/03 14:12:24;;;;;;;16.67;6.83;;;;;;;;;;4998338;28;20128;-74
2022/03/03 14:14:49;;;;;;;15.90;6.20;;;;;;;;;;4998009;28;20109;-74
2022/03/03 14:17:14;;;;;;;15.70;6.23;;;;;;;;;;4997817;28;20375;-73
2022/03/03 14:19:41;;;;;;;17.33;6.10;;;;;;;;;;4997411;28;20018;-73
2022/03/03 14:22:06;;;;;;;16.47;6.80;;;;;;;;;;4998333;28;20030;-73
2022/03/03 14:24:32;;;;;;;15.63;5.90;;;;;;;;;;4998139;28;20083;-73